Flight Track Log - Related Links

Times and Time Zones

All times are in EDT time to prevent confusion due to time zone crossing. See the SLI2069 flight status page for this flight to view local times or setup timezone preferences in your user account.

Time Position Orientation Groundspeed Altitude Reporting Facility
EDT Latitude Longitude Course Direction KTS MPH feet Rate Location/Type
Thu 09:02:00 AM 22.7072 -106.7533 112° Southeast  Level Estimated
Thu 09:03:00 AM 22.6670 -106.6513 113° Southeast  Level Estimated
Thu 09:04:00 AM 22.6267 -106.5493 113° Southeast  Level Estimated
Thu 09:05:00 AM 22.5864 -106.4474 113° Southeast  Level Estimated
Thu 09:06:00 AM 22.5460 -106.3455 113° Southeast  Level Estimated
Thu 09:07:00 AM 22.5055 -106.2437 113° Southeast  Level Estimated
Thu 09:08:00 AM 22.4650 -106.1420 113° Southeast  Level Estimated
Thu 09:09:00 AM 22.4244 -106.0403 113° Southeast  Level Estimated
Thu 09:10:00 AM 22.3837 -105.9387 113° Southeast  Level Estimated
Thu 09:11:00 AM 22.3430 -105.8372 113° Southeast  Level Estimated
Thu 09:12:00 AM 22.3022 -105.7357 113° Southeast  Level Estimated
Thu 09:13:00 AM 22.2614 -105.6342 114° Southeast  Level Estimated
Thu 09:14:00 AM 22.2205 -105.5329 114° Southeast  Level Estimated
Thu 09:15:00 AM 22.1795 -105.4315 114° Southeast  Level Estimated
Thu 09:16:00 AM 22.1384 -105.3303 114° Southeast  Level Estimated
Thu 09:17:00 AM 22.0973 -105.2291 114° Southeast  Level Estimated
Thu 09:18:00 AM 22.0562 -105.1280 114° Southeast  Level Estimated
Thu 09:19:00 AM 22.0149 -105.0269 114° Southeast  Level Estimated
Thu 09:20:00 AM 21.9737 -104.9258 114° Southeast  Level Estimated
Thu 09:21:00 AM 21.9323 -104.8249 114° Southeast  Level Estimated
Thu 09:22:00 AM 21.8909 -104.7240 114° Southeast  Level Estimated
Thu 09:23:00 AM 21.8494 -104.6231 114° Southeast  Level Estimated
Thu 09:24:00 AM 21.8079 -104.5223 114° Southeast  Level Estimated
Thu 09:25:00 AM 21.7663 -104.4216 114° Southeast  Level Estimated
Thu 09:26:00 AM 21.7246 -104.3210 114° Southeast  Level Estimated
Thu 09:27:00 AM 21.6829 -104.2203 114° Southeast  Level Estimated
Thu 09:28:00 AM 21.6411 -104.1198 114° Southeast  Level Estimated
Thu 09:29:00 AM 21.5993 -104.0193 114° Southeast  Level Estimated
Thu 09:30:00 AM 21.5574 -103.9189 114° Southeast  Level Estimated
Thu 09:31:00 AM 21.5154 -103.8185 114° Southeast  Level Estimated
Thu 09:32:00 AM 21.4734 -103.7181 114° Southeast  Level Estimated
Thu 09:33:00 AM 21.4314 -103.6179 114° Southeast  Level Estimated
Thu 09:34:00 AM 21.3892 -103.5177 114° Southeast  Level Estimated
Thu 09:35:00 AM 21.3470 -103.4175 114° Southeast  Level Estimated
Thu 09:36:00 AM 21.3048 -103.3174 114° Southeast  Level Estimated
Thu 09:37:00 AM 21.2624 -103.2174 114° Southeast  Level Estimated
Thu 09:38:00 AM 21.2201 -103.1174 114° Southeast  Level Estimated
Thu 09:39:00 AM 21.1776 -103.0175 114° Southeast  Level Estimated
Thu 09:40:00 AM 21.1351 -102.9176 115° Southeast  Level Estimated
Thu 09:41:00 AM 21.0926 -102.8178 115° Southeast  Level Estimated
Thu 09:42:00 AM 21.0500 -102.7181 115° Southeast  Level Estimated
Thu 09:43:00 AM 21.0073 -102.6184 115° Southeast  Level Estimated
Thu 09:44:00 AM 20.9646 -102.5188 115° Southeast  Level Estimated
Thu 09:45:00 AM 20.9218 -102.4192 115° Southeast  Level Estimated
Thu 09:46:00 AM 20.8790 -102.3197 115° Southeast  Level Estimated
Thu 09:47:00 AM 20.8361 -102.2202 115° Southeast  Level Estimated
Thu 09:48:00 AM 20.7931 -102.1208 115° Southeast  Level Estimated
Thu 09:49:00 AM 20.7501 -102.0215 115° Southeast  Level Estimated
Thu 09:50:00 AM 20.7070 -101.9222 115° Southeast  Level Estimated
Thu 09:51:00 AM 20.6639 -101.8230 115° Southeast  Level Estimated
Thu 09:52:00 AM 20.6207 -101.7238 115° Southeast  Level Estimated
Thu 09:53:00 AM 20.5775 -101.6246 115° Southeast  Level Estimated
Thu 09:54:00 AM 20.5342 -101.5256 115° Southeast  Level Estimated
Thu 09:55:00 AM 20.4908 -101.4266 115° Southeast  Level Estimated
Thu 09:56:00 AM 20.4474 -101.3276 115° Southeast  Level Estimated
Thu 09:57:00 AM 20.4040 -101.2287 115° Southeast  Level Estimated
Thu 09:58:00 AM 20.3604 -101.1299 115° Southeast  Level Estimated
Thu 09:59:00 AM 20.3169 -101.0311 115° Southeast  Level Estimated
Thu 10:00:00 AM 20.2732 -100.9324 115° Southeast  Level Estimated
Thu 10:01:00 AM 20.2295 -100.8337 115° Southeast  Level Estimated
Thu 10:02:00 AM 20.1858 -100.7351 115° Southeast  Level Estimated
Thu 10:03:00 AM 20.1420 -100.6365 115° Southeast  Level Estimated
Thu 10:04:00 AM 20.0982 -100.5380 115° Southeast  Level Estimated
Thu 10:05:00 AM 20.0543 -100.4395 115° Southeast  Level Estimated
Thu 10:06:00 AM 20.0103 -100.3411 115° Southeast  Level Estimated
Thu 10:07:00 AM 19.9663 -100.2428 115° Southeast  Level Estimated
Thu 10:08:00 AM 19.9222 -100.1445 115° Southeast  Level Estimated
Thu 10:09:00 AM 19.8781 -100.0463 116° Southeast  Level Estimated
Thu 10:10:00 AM 19.8339 -99.9481 116° Southeast  Level Estimated
Thu 10:11:00 AM 19.7897 -99.8500 116° Southeast  Level Estimated
Thu 10:12:00 AM 19.7454 -99.7519 116° Southeast  Level Estimated
Thu 10:13:00 AM 19.7011 -99.6539 116° Southeast  Level Estimated
Thu 10:14:00 AM 19.6567 -99.5559 116° Southeast  Level Estimated
Thu 10:15:00 AM 19.6122 -99.4580 116° Southeast  Level Estimated
Thu 10:16:00 AM 19.5677 -99.3602 116° Southeast  Level Estimated
Thu 10:17:00 AM 19.5232 -99.2624 116° Southeast  Level Estimated
Thu 10:18:00 AM 19.4786 -99.1646 116° Southeast  Level Estimated
Thu 10:19:00 AM 19.4363 -99.0721 116° Southeast  Level Estimated
Thu 10:20:00 AM 19.4363 -99.0721 43° Northeast  Level Estimated
Thu 10:21:00 AM 19.4363 -99.0721 43° Northeast  Level Estimated
Thu 10:22:00 AM 19.4363 -99.0721 43° Northeast  Level Estimated
Thu 10:23:00 AM 19.4363 -99.0721 43° Northeast  Level Estimated
Thu 10:24:00 AM 19.4363 -99.0721 43° Northeast  Level Estimated
Thu 10:25:00 AM 19.4363 -99.0721 43° Northeast  Level Estimated
Thu 10:26:00 AM 19.4363 -99.0721 43° Northeast  Level Estimated
Thu 10:27:00 AM 19.4363 -99.0721 43° Northeast  Level Estimated
Thu 10:28:00 AM 19.4363 -99.0721 43° Northeast  Level Estimated
Thu 10:29:00 AM 19.4363 -99.0721 43° Northeast  Level Estimated
Thu 10:30:00 AM 19.4363 -99.0721 43° Northeast  Level Estimated
Thu 10:31:00 AM 19.4363 -99.0721 43° Northeast  Level Estimated
Thu 10:32:00 AM 19.4363 -99.0721 43° Northeast  Level Estimated
Thu 10:33:00 AM 19.4363 -99.0721 43° Northeast  Level Estimated
Thu 10:34:00 AM 19.4363 -99.0721 43° Northeast  Level Estimated
Thu 10:35:00 AM 19.4363 -99.0721 43° Northeast  Level Estimated

Login

Don't have an account? Register now (free) for customized features, flight alerts, and more!